Météo Nord-Pas-de-Calais   La météo au plus près de chez vous

Station météorologique

Observations météo à Belves (24035)

24035003 238 m Dernier relevé à 06:30
12.5°C
Humidité 98 % Vent 3.2 km/h

Journée consultée

Jeudi 3 Septembre 2026

Synthèse de la journée

Périodes de référence en UTC

Température maximale

27.8°C

à 17:12

06h 06h

Température minimale

12.5°C

à 06:30

18h 18h

Rafale maximale

16 km/h

à 03:00

00h 00h

Précipitations

0 mm

Cumul quotidien

06h 06h

Graphiques de la journée

Heure locale Réduire

Données détaillées

Relevés météo

Pas de 6 minutes Afficher les relevés infra-horaires
Relevés météo détaillés à Belves pour le Jeudi 3 Septembre 2026
Heure Température °C Point de rosée °C Humidité % Vent moyen (raf.), km/h Précipitations mm
06:30 12.5 °C 12.3 °C 99 % 0 km/h (3 km/h) 0 mm0 mm
06:24 12.6 °C 12.6 °C 100 % 3 km/h (6 km/h) 0 mm0 mm
06:18 12.6 °C 12.4 °C 99 % 4 km/h (6 km/h) 0 mm0 mm
06:12 12.7 °C 12.5 °C 99 % 4 km/h (6 km/h) 0 mm0 mm
06:06 12.7 °C 12.5 °C 99 % 2 km/h (5 km/h) 0 mm0 mm
06:00 12.7 °C 12.5 °C 99 % 0 km/h (2 km/h) 0 mm0 mm
05:54 12.6 °C 12.4 °C 99 % 0 km/h (2 km/h) 0 mm0 mm
05:48 12.7 °C 12.5 °C 99 % 0 km/h (4 km/h) 0 mm0 mm
05:42 12.7 °C 12.5 °C 99 % 2 km/h (5 km/h) 0 mm0 mm
05:36 12.8 °C 12.6 °C 99 % 2 km/h (4 km/h) 0 mm0 mm
05:30 12.7 °C 12.4 °C 98 % 3 km/h (6 km/h) 0 mm0 mm
05:24 12.7 °C 12.2 °C 97 % 4 km/h (6 km/h) 0 mm0 mm
05:18 12.8 °C 12.3 °C 97 % 3 km/h (5 km/h) 0 mm0 mm
05:12 12.8 °C 12.2 °C 96 % 4 km/h (7 km/h) 0 mm0 mm
05:06 13 °C 12.2 °C 95 % 4 km/h (6 km/h) 0 mm0 mm
05:00 13.3 °C 12.4 °C 94 % 4 km/h (7 km/h) 0 mm0 mm
04:54 13.4 °C 12.6 °C 95 % 4 km/h (7 km/h) 0 mm0 mm
04:48 13.5 °C 12.4 °C 93 % 3 km/h (5 km/h) 0 mm0 mm
04:42 13.6 °C 12.3 °C 92 % 3 km/h (5 km/h) 0 mm0 mm
04:36 13.7 °C 12.4 °C 92 % 3 km/h (5 km/h) 0 mm0 mm
04:30 13.9 °C 12.5 °C 91 % 2 km/h (5 km/h) 0 mm0 mm
04:24 14.1 °C 12.3 °C 89 % 3 km/h (6 km/h) 0 mm0 mm
04:18 14.5 °C 12.5 °C 88 % 4 km/h (6 km/h) 0 mm0 mm
04:12 14.7 °C 12.7 °C 88 % 4 km/h (6 km/h) 0 mm0 mm
04:06 14.8 °C 12.5 °C 86 % 3 km/h (6 km/h) 0 mm0 mm
04:00 15.2 °C 12.3 °C 83 % 2 km/h (4 km/h) 0 mm0 mm
03:54 15.7 °C 12.4 °C 81 % 2 km/h (5 km/h) 0 mm0 mm
03:48 15.9 °C 12.8 °C 82 % 3 km/h (6 km/h) 0 mm0 mm
03:42 16 °C 12.7 °C 81 % 4 km/h (8 km/h) 0 mm0 mm
03:36 16.3 °C 12.8 °C 80 % 5 km/h (9 km/h) 0 mm0 mm
03:30 16.4 °C 12.7 °C 79 % 5 km/h (9 km/h) 0 mm0 mm
03:24 16.5 °C 12.8 °C 79 % 5 km/h (12 km/h) 0 mm0 mm
03:18 16.7 °C 12.8 °C 78 % 7 km/h (12 km/h) 0 mm0 mm
03:12 16.8 °C 12.9 °C 78 % 8 km/h (13 km/h) 0 mm0 mm
03:06 16.9 °C 12.8 °C 77 % 9 km/h (15 km/h) 0 mm0 mm
03:00 16.9 °C 12.8 °C 77 % 8 km/h (15 km/h) 0 mm0 mm
02:54 16.9 °C 12.8 °C 77 % 7 km/h (13 km/h) 0 mm0 mm
02:48 17 °C 12.9 °C 77 % 7 km/h (12 km/h) 0 mm0 mm
02:42 17.2 °C 12.9 °C 76 % 8 km/h (13 km/h) 0 mm0 mm
02:36 17.2 °C 12.9 °C 76 % 8 km/h (13 km/h) 0 mm0 mm
02:30 17.3 °C 13 °C 76 % 8 km/h (13 km/h) 0 mm0 mm
02:24 17.3 °C 12.8 °C 75 % 8 km/h (14 km/h) 0 mm0 mm
02:18 17.4 °C 12.9 °C 75 % 8 km/h (14 km/h) 0 mm0 mm
02:12 17.4 °C 12.9 °C 75 % 8 km/h (13 km/h) 0 mm0 mm
02:06 17.5 °C 12.8 °C 74 % 8 km/h (14 km/h) 0 mm0 mm
02:00 17.7 °C 13 °C 74 % 7 km/h (14 km/h) 0 mm0 mm
01:54 17.8 °C 12.9 °C 73 % 7 km/h (13 km/h) 0 mm0 mm
01:48 17.9 °C 13 °C 73 % 8 km/h (13 km/h) 0 mm0 mm
01:42 17.9 °C 12.8 °C 72 % 7 km/h (12 km/h) 0 mm0 mm
01:36 18 °C 12.9 °C 72 % 7 km/h (12 km/h) 0 mm0 mm
01:30 18 °C 12.9 °C 72 % 7 km/h (13 km/h) 0 mm0 mm
01:24 18.1 °C 12.8 °C 71 % 7 km/h (12 km/h) 0 mm0 mm
01:18 18.2 °C 12.9 °C 71 % 7 km/h (12 km/h) 0 mm0 mm
01:12 18.3 °C 12.7 °C 70 % 7 km/h (13 km/h) 0 mm0 mm
01:06 18.3 °C 12.7 °C 70 % 8 km/h (13 km/h) 0 mm0 mm
01:00 18.5 °C 12.9 °C 70 % 7 km/h (12 km/h) 0 mm0 mm
00:54 18.6 °C 12.8 °C 69 % 8 km/h (13 km/h) 0 mm0 mm
00:48 18.7 °C 12.9 °C 69 % 9 km/h (14 km/h) 0 mm0 mm
00:42 18.8 °C 12.8 °C 68 % 9 km/h (17 km/h) 0 mm0 mm
00:36 19 °C 12.7 °C 67 % 9 km/h (17 km/h) 0 mm0 mm
00:30 19.1 °C 12.6 °C 66 % 9 km/h (17 km/h) 0 mm0 mm
00:24 19.3 °C 12.8 °C 66 % 10 km/h (17 km/h) 0 mm0 mm
00:18 19.4 °C 12.6 °C 65 % 10 km/h (16 km/h) 0 mm0 mm
00:12 19.4 °C 12.4 °C 64 % 9 km/h (15 km/h) 0 mm0 mm
00:06 19.5 °C 12.3 °C 63 % 9 km/h (15 km/h) 0 mm0 mm
00:00 19.6 °C 12.1 °C 62 % 9 km/h (14 km/h) 0 mm0 mm

Données via Météo-France

Relevés météo à Belves

Cette page rassemble les observations de la station de Belves : température, humidité, vent, précipitations et pression atmosphérique. Les graphiques facilitent le suivi de la journée, tandis que le tableau donne accès aux mesures horaires et infra-horaires disponibles.

Pour replacer ces mesures dans leur contexte, consultez la climatologie de Belves ainsi que ses normales et records. Retrouvez aussi la carte des observations météo en temps réel.